Time;durP1;ratioP1;P1;durP2;ratioP2;P2;SDS_P1;SDS_P2;PMS_P1;PMS_P2;Temp;Humidity;BMP_temperature;BMP_pressure;BME280_temperature;BME280_humidity;BME280_pressure;Samples;Min_cycle;Max_cycle;Signal;HPM_P1;HPM_P2
2024/02/08 00:01:16;;;;;;;4.47;2.05;;;;;;;0.83;100.00;97149.72;6110338;19;20010;-72
2024/02/08 00:03:17;;;;;;;3.35;1.83;;;;;;;0.84;100.00;97151.28;6110255;19;20001;-72
2024/02/08 00:05:17;;;;;;;3.70;1.58;;;;;;;0.87;100.00;97157.97;6109078;19;20505;-72
2024/02/08 00:07:17;;;;;;;3.65;1.90;;;;;;;0.88;100.00;97145.94;6109263;19;20371;-72
2024/02/08 00:09:18;;;;;;;4.15;1.70;;;;;;;0.86;100.00;97150.94;6109653;19;20010;-72
2024/02/08 00:11:18;;;;;;;3.88;1.77;;;;;;;0.83;100.00;97143.47;6110537;19;20005;-72
2024/02/08 00:13:18;;;;;;;4.53;2.67;;;;;;;0.82;100.00;97139.16;6110502;19;20109;-72
2024/02/08 00:15:19;;;;;;;3.08;2.40;;;;;;;0.77;100.00;97142.94;6109527;19;20019;-72
2024/02/08 00:17:20;;;;;;;4.47;2.30;;;;;;;0.79;100.00;97139.84;6108025;19;20044;-71
2024/02/08 00:19:20;;;;;;;3.92;2.00;;;;;;;0.77;100.00;97142.94;6108975;19;20003;-72
2024/02/08 00:21:20;;;;;;;4.57;2.72;;;;;;;0.75;100.00;97156.09;6109763;19;20125;-72
2024/02/08 00:23:21;;;;;;;4.53;2.60;;;;;;;0.72;100.00;97162.22;6110711;19;20009;-72
2024/02/08 00:25:24;;;;;;;4.15;2.33;;;;;;;0.70;100.00;97166.44;6109258;19;20737;-72
2024/02/08 00:27:24;;;;;;;6.18;2.15;;;;;;;0.67;100.00;97153.53;6108325;19;20012;-72
2024/02/08 00:29:25;;;;;;;2.55;2.00;;;;;;;0.66;100.00;97155.41;6108980;19;20013;-72
2024/02/08 00:31:25;;;;;;;4.70;2.10;;;;;;;0.66;100.00;97154.63;6110806;19;20002;-72
2024/02/08 00:33:26;;;;;;;3.95;1.80;;;;;;;0.66;100.00;97160.06;6108807;19;20554;-72
2024/02/08 00:35:27;;;;;;;3.58;1.70;;;;;;;0.66;100.00;97162.78;6108781;19;20011;-72
2024/02/08 00:37:27;;;;;;;4.10;1.92;;;;;;;0.65;100.00;97166.66;6108774;19;20023;-72
2024/02/08 00:39:27;;;;;;;4.03;2.92;;;;;;;0.64;100.00;97163.16;6109045;19;20015;-72
2024/02/08 00:41:28;;;;;;;4.40;2.40;;;;;;;0.59;100.00;97163.41;6109178;19;20455;-72
2024/02/08 00:43:28;;;;;;;6.90;2.40;;;;;;;0.59;100.00;97168.84;6109630;19;20082;-72
2024/02/08 00:45:30;;;;;;;5.28;2.22;;;;;;;0.60;100.00;97172.38;6108958;19;20021;-72
2024/02/08 00:47:30;;;;;;;5.10;2.17;;;;;;;0.57;100.00;97158.28;6107265;19;20021;-72
2024/02/08 00:49:30;;;;;;;4.47;2.20;;;;;;;0.60;100.00;97158.75;6107489;19;20007;-72
2024/02/08 00:51:31;;;;;;;5.18;2.00;;;;;;;0.61;100.00;97155.69;6109716;19;20081;-72
2024/02/08 00:53:31;;;;;;;4.85;2.15;;;;;;;0.65;100.00;97159.28;6108419;19;20007;-72
2024/02/08 00:55:33;;;;;;;4.90;1.98;;;;;;;0.67;100.00;97150.81;6109206;19;20010;-72
2024/02/08 00:57:34;;;;;;;4.93;2.10;;;;;;;0.67;100.00;97151.59;6107402;19;20026;-72
2024/02/08 00:59:38;;;;;;;5.13;2.05;;;;;;;0.67;100.00;97153.53;6108227;19;20002;-72
2024/02/08 01:01:40;;;;;;;5.75;2.65;;;;;;;0.66;100.00;97149.97;6108434;19;20348;-72
2024/02/08 01:03:41;;;;;;;7.03;2.42;;;;;;;0.66;100.00;97141.03;6108317;19;20010;-72
2024/02/08 01:05:42;;;;;;;5.72;2.20;;;;;;;0.66;100.00;97143.75;6108224;19;20018;-72
2024/02/08 01:07:42;;;;;;;6.10;2.70;;;;;;;0.66;100.00;97146.47;6107928;19;20014;-72
2024/02/08 01:09:42;;;;;;;4.32;2.17;;;;;;;0.64;100.00;97148.75;6107278;19;20018;-72
2024/02/08 01:11:43;;;;;;;3.60;2.22;;;;;;;0.64;100.00;97144.09;6108793;19;20475;-72
2024/02/08 01:13:43;;;;;;;3.17;2.00;;;;;;;0.64;100.00;97137.84;6109123;19;20335;-72
2024/02/08 01:15:46;;;;;;;5.32;2.50;;;;;;;0.63;100.00;97137.06;6107844;19;20378;-72
2024/02/08 01:17:51;;;;;;;6.35;2.38;;;;;;;0.60;100.00;97131.53;6106362;19;20014;-72
2024/02/08 01:19:52;;;;;;;3.25;2.25;;;;;;;0.60;100.00;97128.81;6108261;19;20023;-72
2024/02/08 01:21:53;;;;;;;2.97;1.75;;;;;;;0.60;100.00;97128.81;6108331;19;20374;-72
2024/02/08 01:23:53;;;;;;;5.55;2.83;;;;;;;0.61;100.00;97127.69;6108383;19;20003;-72
2024/02/08 01:25:53;;;;;;;4.63;2.00;;;;;;;0.60;100.00;97121.44;6107871;19;20019;-72
2024/02/08 01:27:55;;;;;;;4.28;2.10;;;;;;;0.62;100.00;97131.97;6107288;19;20006;-72
2024/02/08 01:29:59;;;;;;;4.75;2.80;;;;;;;0.61;100.00;97130.41;6108374;19;20015;-72
2024/02/08 01:32:00;;;;;;;7.07;3.03;;;;;;;0.62;100.00;97132.75;6108116;19;20086;-72
2024/02/08 01:34:01;;;;;;;4.05;2.28;;;;;;;0.63;100.00;97122.66;6106957;19;20406;-72
2024/02/08 01:36:02;;;;;;;6.63;2.72;;;;;;;0.64;100.00;97130.47;6107155;19;20007;-72
2024/02/08 01:38:02;;;;;;;6.07;2.75;;;;;;;0.64;100.00;97122.31;6106999;19;20663;-72
2024/02/08 01:40:03;;;;;;;5.93;2.70;;;;;;;0.66;100.00;97117.31;6107337;19;20032;-72
2024/02/08 01:42:13;;;;;;;8.75;2.80;;;;;;;0.66;100.00;97127.41;6107298;19;20516;-72
2024/02/08 01:44:16;;;;;;;6.22;3.25;;;;;;;0.65;100.00;97117.66;6107952;19;20122;-72
2024/02/08 01:46:16;;;;;;;5.25;2.70;;;;;;;0.66;100.00;97111.06;6100650;19;20302;-72
2024/02/08 01:48:17;;;;;;;5.88;2.72;;;;;;;0.65;100.00;97109.50;6104293;19;20209;-72
2024/02/08 01:50:18;;;;;;;4.82;2.55;;;;;;;0.66;100.00;97106.44;6106455;19;20447;-72
2024/02/08 01:52:18;;;;;;;5.32;2.45;;;;;;;0.68;100.00;97111.53;6107777;19;19995;-72
2024/02/08 01:54:19;;;;;;;4.18;2.28;;;;;;;0.67;100.00;97099.88;6106310;19;20002;-72
2024/02/08 01:56:19;;;;;;;5.00;2.80;;;;;;;0.70;100.00;97098.38;6107365;19;20394;-72
2024/02/08 01:58:23;;;;;;;5.28;2.40;;;;;;;0.73;100.00;97103.91;6106003;19;20066;-72
2024/02/08 02:00:24;;;;;;;5.18;2.50;;;;;;;0.79;100.00;97107.97;6109914;19;20066;-72
2024/02/08 02:02:27;;;;;;;4.90;2.58;;;;;;;0.79;100.00;97088.91;6112216;19;20031;-72
2024/02/08 02:04:30;;;;;;;5.10;2.78;;;;;;;0.79;100.00;97097.06;6113338;19;20016;-72
2024/02/08 02:06:31;;;;;;;5.05;3.28;;;;;;;0.79;100.00;97090.84;6112730;19;20039;-72
2024/02/08 02:08:33;;;;;;;6.38;2.58;;;;;;;0.80;100.00;97090.50;6111771;19;20006;-72
2024/02/08 02:10:33;;;;;;;5.17;2.70;;;;;;;0.77;100.00;97084.97;6110429;19;20011;-72
2024/02/08 02:12:34;;;;;;;5.53;3.10;;;;;;;0.79;100.00;97082.66;6113504;19;20010;-72
2024/02/08 02:14:38;;;;;;;6.57;2.70;;;;;;;0.79;100.00;97082.66;6112566;19;20883;-72
2024/02/08 02:16:38;;;;;;;5.90;3.15;;;;;;;0.78;100.00;97079.16;6111617;19;20013;-72
2024/02/08 02:18:39;;;;;;;9.27;3.00;;;;;;;0.74;100.00;97077.47;6111191;19;20554;-72
2024/02/08 02:20:39;;;;;;;4.93;3.13;;;;;;;0.75;100.00;97077.16;6111644;19;20006;-72
2024/02/08 02:22:42;;;;;;;4.85;2.60;;;;;;;0.72;100.00;97079.75;6112739;19;20002;-72
2024/02/08 02:24:43;;;;;;;8.15;2.75;;;;;;;0.74;100.00;97077.47;6112246;19;20029;-72
2024/02/08 02:26:43;;;;;;;7.25;4.18;;;;;;;0.74;100.00;97082.91;6112562;19;20333;-72
2024/02/08 02:28:44;;;;;;;6.40;3.08;;;;;;;0.71;100.00;97087.13;6111113;19;20508;-72
2024/02/08 02:30:46;;;;;;;6.88;3.00;;;;;;;0.74;100.00;97085.63;6111093;19;20009;-72
2024/02/08 02:32:47;;;;;;;5.18;2.70;;;;;;;0.72;100.00;97077.03;6111854;19;20035;-72
2024/02/08 02:34:51;;;;;;;6.30;3.00;;;;;;;0.75;100.00;97082.59;6112345;19;20466;-72
2024/02/08 02:36:58;;;;;;;11.48;3.58;;;;;;;0.76;100.00;97073.28;6111499;19;20019;-72
2024/02/08 02:38:58;;;;;;;4.93;2.63;;;;;;;0.73;100.00;97078.63;6113853;19;20081;-72
2024/02/08 02:41:05;;;;;;;5.82;3.20;;;;;;;0.76;100.00;97083.38;6111976;19;20338;-72
2024/02/08 02:43:09;;;;;;;6.68;3.35;;;;;;;0.73;100.00;97079.41;6112591;19;20007;-72
2024/02/08 02:45:13;;;;;;;11.25;3.55;;;;;;;0.72;100.00;97079.75;6110702;19;20010;-72
2024/02/08 02:47:13;;;;;;;7.20;3.83;;;;;;;0.75;100.00;97073.63;6108240;19;20344;-72
2024/02/08 02:49:14;;;;;;;9.75;3.50;;;;;;;0.76;100.00;97080.66;6105737;19;20287;-72
2024/02/08 02:51:14;;;;;;;5.20;2.92;;;;;;;0.76;100.00;97072.50;6105422;19;20445;-72
2024/02/08 02:53:17;;;;;;;7.35;3.38;;;;;;;0.76;100.00;97077.94;6105075;19;20331;-72
2024/02/08 02:55:18;;;;;;;6.00;3.75;;;;;;;0.77;100.00;97074.84;6104497;19;20007;-72
2024/02/08 02:57:18;;;;;;;9.85;3.65;;;;;;;0.81;100.00;97077.66;6103294;19;20347;-72
2024/02/08 02:59:20;;;;;;;7.95;3.65;;;;;;;0.81;100.00;97072.22;6103807;19;20049;-72
2024/02/08 03:01:21;;;;;;;9.00;3.75;;;;;;;0.80;100.00;97068.72;6105501;19;20018;-72
2024/02/08 03:03:22;;;;;;;8.93;4.05;;;;;;;0.78;100.00;97068.28;6104724;19;20009;-72
2024/02/08 03:05:23;;;;;;;7.88;3.33;;;;;;;0.78;100.00;97062.81;6105104;19;20007;-72
2024/02/08 03:07:26;;;;;;;8.75;4.00;;;;;;;0.77;100.00;97068.63;6103602;19;20014;-72
2024/02/08 03:09:31;;;;;;;8.73;4.75;;;;;;;0.74;100.00;97072.03;6104657;19;20006;-72
2024/02/08 03:11:32;;;;;;;9.43;4.05;;;;;;;0.75;100.00;97077.16;6105011;19;20007;-72
2024/02/08 03:13:34;;;;;;;9.98;4.75;;;;;;;0.74;100.00;97066.56;6104324;19;20025;-72
2024/02/08 03:15:37;;;;;;;6.18;3.90;;;;;;;0.76;100.00;97064.31;6104904;19;20082;-72
2024/02/08 03:17:38;;;;;;;9.82;4.55;;;;;;;0.75;100.00;97066.25;6102615;19;20473;-72
2024/02/08 03:19:38;;;;;;;8.68;4.25;;;;;;;0.73;100.00;97062.28;6103569;19;20078;-72
2024/02/08 03:21:40;;;;;;;6.47;4.18;;;;;;;0.70;100.00;97062.97;6104610;19;20002;-72
2024/02/08 03:23:45;;;;;;;9.27;5.10;;;;;;;0.68;100.00;97062.53;6104091;19;20015;-72
2024/02/08 03:25:49;;;;;;;7.97;4.40;;;;;;;0.68;100.00;97060.63;6104775;19;20003;-72
2024/02/08 03:27:53;;;;;;;14.38;6.32;;;;;;;0.67;100.00;97055.53;6102248;19;20418;-72
2024/02/08 03:29:53;;;;;;;12.18;4.95;;;;;;;0.65;100.00;97057.78;6103597;19;20086;-72
2024/02/08 03:31:54;;;;;;;11.63;5.45;;;;;;;0.67;100.00;97060.97;6103386;19;20014;-72
2024/02/08 03:33:54;;;;;;;15.20;6.45;;;;;;;0.64;100.00;97067.09;6105248;19;20426;-72
2024/02/08 03:35:54;;;;;;;12.18;5.50;;;;;;;0.62;100.00;97061.22;6103468;19;20003;-72
2024/02/08 03:37:55;;;;;;;11.73;5.43;;;;;;;0.61;100.00;97059.63;6101790;19;20002;-72
2024/02/08 03:39:55;;;;;;;11.75;5.93;;;;;;;0.57;100.00;97052.13;6103478;19;20025;-72
2024/02/08 03:41:58;;;;;;;12.77;5.88;;;;;;;0.57;100.00;97056.78;6102453;19;20010;-72
2024/02/08 03:44:02;;;;;;;12.13;5.50;;;;;;;0.56;100.00;97057.94;6102141;19;19995;-72
2024/02/08 03:46:04;;;;;;;9.80;5.60;;;;;;;0.56;100.00;97061.44;6101418;19;20014;-72
2024/02/08 03:48:05;;;;;;;12.82;6.13;;;;;;;0.56;100.00;97064.16;6105655;19;20416;-72
2024/02/08 03:50:06;;;;;;;13.88;5.85;;;;;;;0.59;100.00;97070.06;6109289;19;20407;-72
2024/02/08 03:52:09;;;;;;;12.32;5.78;;;;;;;0.57;100.00;97068.47;6108726;19;20006;-72
2024/02/08 03:54:09;;;;;;;11.38;6.22;;;;;;;0.58;100.00;97061.13;6108486;19;20011;-72
2024/02/08 03:56:14;;;;;;;10.05;5.93;;;;;;;0.64;100.00;97067.09;6110004;19;20018;-72
2024/02/08 03:58:15;;;;;;;12.18;6.38;;;;;;;0.64;100.00;97067.09;6107527;19;20011;-72
2024/02/08 04:00:27;;;;;;;10.52;5.68;;;;;;;0.62;100.00;97069.38;6109155;19;20026;-72
2024/02/08 04:02:28;;;;;;;11.57;5.82;;;;;;;0.60;100.00;97067.00;6110353;19;20027;-72
2024/02/08 04:04:59;;;;;;;9.95;4.97;;;;;;;0.62;100.00;97070.16;6109353;19;20010;-72
2024/02/08 04:07:19;;;;;;;10.05;5.30;;;;;;;0.58;100.00;97069.28;6110537;19;20011;-72
2024/02/08 04:09:33;;;;;;;11.50;5.82;;;;;;;0.59;100.00;97065.44;6110608;19;20057;-72
2024/02/08 04:53:36;;;;;;;9.88;4.97;;;;;;;0.54;100.00;97066.44;6108409;19;20010;-72
2024/02/08 04:55:36;;;;;;;10.05;5.38;;;;;;;0.55;100.00;97068.03;6107953;19;20099;-72
2024/02/08 04:57:37;;;;;;;11.25;4.82;;;;;;;0.56;100.00;97064.16;6107246;19;20003;-72
2024/02/08 04:59:41;;;;;;;10.95;4.70;;;;;;;0.53;100.00;97059.44;6108395;19;20007;-72
2024/02/08 05:01:42;;;;;;;10.07;5.47;;;;;;;0.54;100.00;97052.84;6107919;19;20446;-72
2024/02/08 05:03:43;;;;;;;10.32;5.03;;;;;;;0.55;100.00;97057.16;6108193;19;20014;-72
2024/02/08 05:05:43;;;;;;;9.05;4.80;;;;;;;0.54;100.00;97052.84;6107946;19;20009;-72
2024/02/08 05:07:44;;;;;;;11.07;4.80;;;;;;;0.55;100.00;97061.78;6106235;19;20010;-72
2024/02/08 05:09:44;;;;;;;13.55;6.00;;;;;;;0.54;100.00;97052.84;6107250;19;20029;-72
2024/02/08 05:11:48;;;;;;;9.68;4.78;;;;;;;0.56;100.00;97053.28;6107812;19;20627;-72
2024/02/08 05:13:52;;;;;;;11.07;5.13;;;;;;;0.57;100.00;97051.34;6107887;19;20007;-72
2024/02/08 05:15:52;;;;;;;9.05;4.47;;;;;;;0.56;100.00;97044.31;6107642;19;19999;-72
2024/02/08 05:17:54;;;;;;;10.20;5.43;;;;;;;0.57;100.00;97033.09;6106292;19;20164;-72
2024/02/08 05:19:54;;;;;;;10.23;4.75;;;;;;;0.58;100.00;97033.91;6105142;19;20007;-72
2024/02/08 05:21:58;;;;;;;12.50;5.25;;;;;;;0.57;100.00;97043.19;6106347;19;20084;-72
2024/02/08 05:23:59;;;;;;;11.25;5.40;;;;;;;0.57;100.00;97043.19;6105784;19;20482;-72
2024/02/08 05:26:00;;;;;;;10.00;4.95;;;;;;;0.57;100.00;97032.28;6107827;19;20010;-72
2024/02/08 05:28:01;;;;;;;14.73;5.45;;;;;;;0.55;100.00;97029.94;6105654;19;20002;-72
2024/02/08 05:30:05;;;;;;;10.32;5.25;;;;;;;0.57;100.00;97035.03;6105750;19;20023;-72
2024/02/08 05:32:05;;;;;;;9.32;5.20;;;;;;;0.57;100.00;97037.75;6102942;19;20013;-72
2024/02/08 05:34:07;;;;;;;12.98;5.80;;;;;;;0.57;100.00;97048.63;6108746;19;20059;-72
2024/02/08 05:36:08;;;;;;;9.35;4.57;;;;;;;0.57;100.00;97043.97;6112761;19;20006;-72
2024/02/08 05:38:08;;;;;;;9.90;4.72;;;;;;;0.60;100.00;97055.31;6112149;19;20387;-72
2024/02/08 05:40:14;;;;;;;10.98;5.55;;;;;;;0.56;100.00;97050.56;6111693;19;20002;-72
2024/02/08 05:42:14;;;;;;;10.95;5.15;;;;;;;0.61;100.00;97054.97;6113165;19;20080;-72
2024/02/08 05:44:14;;;;;;;10.65;5.05;;;;;;;0.60;100.00;97045.22;6112678;19;20016;-72
2024/02/08 05:46:21;;;;;;;11.52;5.57;;;;;;;0.62;100.00;97051.09;6113197;19;20018;-72
2024/02/08 05:48:27;;;;;;;13.48;5.40;;;;;;;0.61;100.00;97040.56;6112413;19;20022;-72
2024/02/08 05:50:30;;;;;;;11.70;4.93;;;;;;;0.60;100.00;97052.59;6112970;19;20490;-72
2024/02/08 05:52:33;;;;;;;12.10;5.70;;;;;;;0.57;100.00;97054.84;6113170;19;20002;-72
2024/02/08 05:54:36;;;;;;;13.63;5.45;;;;;;;0.62;100.00;97055.75;6111832;19;20002;-72
2024/02/08 05:56:39;;;;;;;10.30;5.32;;;;;;;0.67;100.00;97041.91;6112118;19;20070;-72
2024/02/08 05:58:40;;;;;;;10.50;5.20;;;;;;;0.64;100.00;97048.03;6112822;19;20018;-72
2024/02/08 06:00:45;;;;;;;12.40;5.68;;;;;;;0.66;100.00;97053.91;6112258;19;20861;-72
2024/02/08 06:02:46;;;;;;;11.70;5.70;;;;;;;0.68;100.00;97059.81;6111033;19;20009;-72
2024/02/08 06:04:52;;;;;;;12.65;5.70;;;;;;;0.68;100.00;97063.34;6113360;19;19995;-72
2024/02/08 06:06:58;;;;;;;11.80;6.60;;;;;;;0.69;100.00;97064.13;6113030;19;20480;-72
2024/02/08 06:09:33;;;;;;;13.98;6.65;;;;;;;0.70;100.00;97068.44;6113012;19;20023;-72
2024/02/08 06:11:37;;;;;;;11.15;6.10;;;;;;;0.70;100.00;97068.44;6112689;19;20003;-72
2024/02/08 06:13:41;;;;;;;11.80;6.32;;;;;;;0.69;100.00;97058.69;6112334;19;19999;-72
2024/02/08 06:15:47;;;;;;;13.45;6.70;;;;;;;0.71;100.00;97054.47;6112883;19;20070;-72
2024/02/08 06:17:51;;;;;;;13.07;6.38;;;;;;;0.75;100.00;97054.56;6111766;19;20054;-72
2024/02/08 06:19:51;;;;;;;16.83;6.78;;;;;;;0.73;100.00;97067.72;6110974;19;20002;-72
2024/02/08 06:21:57;;;;;;;11.80;5.82;;;;;;;0.72;100.00;97058.75;6112349;19;20320;-72
2024/02/08 06:24:14;;;;;;;13.18;5.30;;;;;;;0.70;100.00;97061.06;6110681;19;20006;-72
2024/02/08 06:28:15;;;;;;;13.02;6.32;;;;;;;0.69;100.00;97053.25;6110053;19;19995;-72
2024/02/08 06:30:18;;;;;;;11.05;5.25;;;;;;;0.67;100.00;97039.97;6109770;19;19998;-72
2024/02/08 06:33:07;;;;;;;13.38;6.35;;;;;;;0.68;100.00;97052.44;6110277;19;19994;-72
2024/02/08 06:34:47;;;;;;;12.18;6.13;;;;;;;0.67;100.00;97053.59;6109363;19;20482;-71
2024/02/08 06:37:15;;;;;;;15.95;7.10;;;;;;;0.68;100.00;97054.38;6106915;19;20017;-72
2024/02/08 06:39:28;;;;;;;13.60;6.40;;;;;;;0.71;100.00;97050.94;6107425;19;20011;-72
2024/02/08 06:41:52;;;;;;;15.90;6.60;;;;;;;0.73;100.00;97046.72;6108381;19;20454;-71
2024/02/08 06:43:59;;;;;;;12.68;6.30;;;;;;;0.76;100.00;97039.81;6109951;19;20455;-72
2024/02/08 06:46:09;;;;;;;12.77;6.18;;;;;;;0.80;100.00;97049.66;6108784;19;20010;-72
2024/02/08 07:41:19;;;;;;;13.57;5.60;;;;;;;1.05;100.00;97074.03;6108033;19;20006;-72
2024/02/08 07:43:34;;;;;;;11.23;5.47;;;;;;;1.03;100.00;97079.03;6111401;19;20025;-72
2024/02/08 07:45:34;;;;;;;13.23;5.40;;;;;;;1.06;100.00;97064.69;6109961;19;20013;-72
2024/02/08 07:47:35;;;;;;;9.70;5.70;;;;;;;1.09;100.00;97069.47;6104959;19;20078;-72
2024/02/08 07:49:44;;;;;;;11.63;5.63;;;;;;;1.06;100.00;97062.78;6102026;19;20370;-72
2024/02/08 07:51:50;;;;;;;13.55;6.25;;;;;;;1.09;100.00;97064.81;6103290;19;20005;-72
2024/02/08 07:53:53;;;;;;;10.63;5.38;;;;;;;1.11;100.00;97065.25;6103071;19;20010;-72
2024/02/08 07:55:58;;;;;;;11.45;5.80;;;;;;;1.14;100.00;97074.63;6102605;19;20006;-72
2024/02/08 07:57:58;;;;;;;9.68;4.53;;;;;;;1.11;100.00;97078.88;6099713;19;20044;-72
2024/02/08 07:59:59;;;;;;;14.13;6.00;;;;;;;1.11;100.00;97073.41;6101934;19;20002;-72
2024/02/08 08:02:00;;;;;;;12.73;5.47;;;;;;;1.14;100.00;97071.91;6103085;19;20010;-72
2024/02/08 08:04:01;;;;;;;10.98;5.05;;;;;;;1.15;100.00;97070.78;6102158;19;20013;-72
2024/02/08 08:06:05;;;;;;;12.73;7.13;;;;;;;1.17;100.00;97070.44;6101850;19;20006;-72
2024/02/08 08:08:15;;;;;;;18.08;9.43;;;;;;;1.17;100.00;97081.34;6101410;19;19999;-72
2024/02/08 08:10:25;;;;;;;16.67;8.85;;;;;;;1.20;100.00;97077.91;6101813;19;20006;-72
2024/02/08 08:12:29;;;;;;;14.60;7.22;;;;;;;1.19;100.00;97092.66;6103006;19;20003;-72
2024/02/08 08:15:04;;;;;;;15.63;7.40;;;;;;;1.23;100.00;97082.63;6102867;19;20026;-72
2024/02/08 08:17:16;;;;;;;21.50;13.43;;;;;;;1.24;100.00;97071.41;6100841;19;19999;-72
2024/02/08 08:19:30;;;;;;;16.08;8.77;;;;;;;1.27;100.00;97078.09;6102065;19;20475;-72
2024/02/08 08:21:55;;;;;;;14.30;7.20;;;;;;;1.28;100.00;97085.13;6101759;19;19999;-72
2024/02/08 08:24:03;;;;;;;16.00;7.00;;;;;;;1.27;100.00;97089.00;6102162;19;19994;-72
2024/02/08 08:26:23;;;;;;;12.48;6.60;;;;;;;1.27;100.00;97091.72;6101805;19;20011;-72
2024/02/08 08:30:30;;;;;;;16.40;6.55;;;;;;;1.25;100.00;97108.41;6102897;19;20006;-72
2024/02/08 08:36:34;;;;;;;13.73;6.72;;;;;;;1.27;100.00;97114.31;6103061;19;20010;-72
2024/02/08 08:38:44;;;;;;;12.20;5.85;;;;;;;1.27;100.00;97097.94;6100875;19;20078;-72
2024/02/08 08:41:00;;;;;;;15.85;6.25;;;;;;;1.28;100.00;97087.84;6102861;19;20493;-72
2024/02/08 08:43:06;;;;;;;18.73;6.25;;;;;;;1.32;100.00;97088.72;6101945;19;20027;-72
2024/02/08 08:45:09;;;;;;;15.55;6.88;;;;;;;1.32;100.00;97085.97;6101298;19;20011;-72
2024/02/08 08:47:09;;;;;;;15.25;7.13;;;;;;;1.31;100.00;97085.19;6101467;19;20292;-72
2024/02/08 08:49:14;;;;;;;15.20;6.50;;;;;;;1.33;100.00;97084.88;6108037;19;20015;-72
2024/02/08 08:51:14;;;;;;;14.02;7.85;;;;;;;1.34;100.00;97083.72;6109245;19;20003;-72
2024/02/08 08:53:19;;;;;;;16.17;8.48;;;;;;;1.35;100.00;97091.53;6108496;19;20082;-72
2024/02/08 08:55:20;;;;;;;17.52;7.90;;;;;;;1.34;100.00;97084.50;6108907;19;20007;-72
2024/02/08 08:57:25;;;;;;;18.45;10.55;;;;;;;1.32;100.00;97078.59;6107414;19;20014;-72
2024/02/08 08:59:26;;;;;;;14.93;7.40;;;;;;;1.34;100.00;97072.81;6108790;19;20470;-72
2024/02/08 09:01:29;;;;;;;17.25;7.68;;;;;;;1.37;100.00;97077.56;6109224;19;20027;-72
2024/02/08 09:03:33;;;;;;;16.35;8.55;;;;;;;1.40;100.00;97085.03;6108024;19;20006;-72
2024/02/08 09:05:36;;;;;;;18.40;10.43;;;;;;;1.37;100.00;97075.63;6108680;19;20018;-72
2024/02/08 09:07:37;;;;;;;;;;;;;;;1.40;100.00;97082.28;6108339;19;19999;-72
2024/02/08 09:11:57;;;;;;;15.48;7.63;;;;;;;1.38;100.00;97079.94;6108161;19;20569;-72
2024/02/08 09:14:09;;;;;;;12.82;7.05;;;;;;;1.35;100.00;97079.84;6107920;19;20062;-72
2024/02/08 09:19:03;;;;;;;13.45;6.47;;;;;;;1.35;100.00;97074.41;6106837;19;20475;-72
2024/02/08 09:20:47;;;;;;;;;;;;;;;1.37;100.00;97083.78;6107700;19;20010;-72
2024/02/08 09:22:49;;;;;;;16.63;7.32;;;;;;;1.38;100.00;97079.94;6108466;19;20319;-72
2024/02/08 09:24:50;;;;;;;17.00;6.65;;;;;;;1.41;100.00;97078.44;6108145;19;20002;-72
2024/02/08 09:27:00;;;;;;;16.15;7.65;;;;;;;1.42;100.00;97060.16;6108058;19;20360;-72
2024/02/08 09:29:09;;;;;;;18.33;8.27;;;;;;;1.41;100.00;97062.09;6108926;19;20002;-72
2024/02/08 09:31:12;;;;;;;17.55;8.60;;;;;;;1.43;100.00;97065.25;6107638;19;20009;-72
2024/02/08 09:33:29;;;;;;;16.00;7.93;;;;;;;1.47;100.00;97054.44;6108192;19;20069;-72
2024/02/08 09:35:30;;;;;;;19.02;7.85;;;;;;;1.49;100.00;97047.50;6107766;19;20014;-72
2024/02/08 09:37:30;;;;;;;18.83;8.48;;;;;;;1.54;100.00;97054.59;6107194;19;20003;-72
2024/02/08 09:39:53;;;;;;;21.15;9.65;;;;;;;1.60;100.00;97051.25;6107732;19;20018;-72
2024/02/08 09:41:51;;;;;;;18.40;8.38;;;;;;;1.67;100.00;97047.91;6107275;19;20002;-72
2024/02/08 09:43:56;;;;;;;21.08;9.30;;;;;;;1.71;100.00;97040.59;6108026;19;20009;-72
2024/02/08 09:46:06;;;;;;;18.08;9.02;;;;;;;1.74;100.00;97039.91;6107097;19;20030;-72
2024/02/08 09:48:11;;;;;;;18.20;8.30;;;;;;;1.77;100.00;97035.66;6105161;19;20054;-72
2024/02/08 09:50:21;;;;;;;18.58;8.32;;;;;;;1.75;100.00;97030.56;6107325;19;20010;-72
2024/02/08 09:52:30;;;;;;;18.50;8.98;;;;;;;1.77;100.00;97028.28;6107024;19;20031;-72
2024/02/08 09:54:31;;;;;;;14.68;7.78;;;;;;;1.82;100.00;97025.28;6108779;19;20010;-72
2024/02/08 09:56:39;;;;;;;23.52;8.73;;;;;;;1.82;100.00;97017.09;6107649;19;20017;-72
2024/02/08 09:58:39;;;;;;;14.15;8.05;;;;;;;1.82;100.00;97019.81;6106893;19;20015;-72
2024/02/08 10:00:57;;;;;;;13.95;7.97;;;;;;;1.85;100.00;97024.56;6107204;19;20014;-72
2024/02/08 10:03:03;;;;;;;19.17;8.07;;;;;;;1.85;100.00;97038.19;6107040;19;20013;-72
2024/02/08 10:05:28;;;;;;;17.95;8.52;;;;;;;1.90;100.00;97015.28;6107795;19;20007;-72
2024/02/08 10:07:35;;;;;;;16.17;7.88;;;;;;;1.92;100.00;97019.25;6106216;19;20006;-72
2024/02/08 10:09:46;;;;;;;16.00;7.75;;;;;;;1.93;100.00;97009.13;6106945;19;20010;-72
2024/02/08 10:11:57;;;;;;;17.33;9.10;;;;;;;1.92;100.00;97010.28;6107406;19;20006;-72
2024/02/08 10:14:06;;;;;;;22.20;8.82;;;;;;;1.92;100.00;97002.91;6105830;19;20463;-72
2024/02/08 10:16:12;;;;;;;18.75;8.63;;;;;;;1.91;100.00;97003.25;6105771;19;20009;-72
2024/02/08 10:18:23;;;;;;;15.60;8.40;;;;;;;1.93;100.00;97004.47;6104885;19;20007;-72
2024/02/08 10:20:36;;;;;;;18.85;8.18;;;;;;;1.97;100.00;96991.69;6106611;19;20011;-72
2024/02/08 10:22:42;;;;;;;18.88;8.63;;;;;;;2.04;100.00;96973.88;6113324;19;20006;-72
2024/02/08 10:26:50;;;;;;;20.30;8.48;;;;;;;2.09;100.00;96987.25;6112729;19;20015;-72
2024/02/08 10:28:53;;;;;;;16.02;7.97;;;;;;;2.08;100.00;96981.00;6111589;19;20442;-72
2024/02/08 10:30:54;;;;;;;18.88;9.75;;;;;;;2.10;100.00;96983.38;6112124;19;20005;-72
2024/02/08 10:32:54;;;;;;;18.30;7.85;;;;;;;2.19;100.00;96978.50;6111768;19;20054;-72
2024/02/08 10:35:13;;;;;;;17.63;9.05;;;;;;;2.31;100.00;96975.59;6113493;19;19998;-72
2024/02/08 10:37:47;;;;;;;16.48;8.13;;;;;;;2.38;100.00;96964.81;6110720;19;20025;-72
2024/02/08 10:39:59;;;;;;;20.58;9.90;;;;;;;2.39;100.00;96949.22;6111145;19;19999;-72
2024/02/08 10:42:01;;;;;;;22.30;10.35;;;;;;;2.36;100.00;96944.50;6112095;19;20420;-72
2024/02/08 10:44:05;;;;;;;23.27;10.73;;;;;;;2.35;100.00;96946.44;6111106;19;20715;-72
2024/02/08 10:46:16;;;;;;;21.88;9.82;;;;;;;2.35;100.00;96941.00;6111023;19;19999;-72
2024/02/08 10:48:16;;;;;;;19.63;10.45;;;;;;;2.35;100.00;96934.75;6111019;19;20317;-72
2024/02/08 10:50:27;;;;;;;25.48;9.82;;;;;;;2.37;100.00;96937.91;6110802;19;20006;-72
2024/02/08 10:52:33;;;;;;;21.77;9.75;;;;;;;2.39;100.00;96922.72;6109638;19;20507;-72
2024/02/08 10:54:43;;;;;;;18.55;9.32;;;;;;;2.42;100.00;96924.75;6112206;19;20006;-72
2024/02/08 10:56:45;;;;;;;17.33;8.45;;;;;;;2.42;100.00;96919.28;6112892;19;20395;-72
2024/02/08 10:59:09;;;;;;;18.60;8.88;;;;;;;2.42;100.00;96913.03;6110127;19;20451;-72
2024/02/08 11:01:32;;;;;;;17.13;8.55;;;;;;;2.44;100.00;96913.47;6111085;19;20016;-72
2024/02/08 11:03:38;;;;;;;15.73;7.15;;;;;;;2.44;100.00;96914.25;6111393;19;20006;-72
2024/02/08 11:05:48;;;;;;;17.23;7.20;;;;;;;2.43;100.00;96915.41;6111063;19;20016;-72
2024/02/08 11:07:53;;;;;;;17.38;7.72;;;;;;;2.40;100.00;96897.03;6110706;19;20405;-72
2024/02/08 11:09:53;;;;;;;18.48;8.48;;;;;;;2.43;100.00;96906.44;6110452;19;20026;-72
2024/02/08 11:12:03;;;;;;;20.83;8.00;;;;;;;2.47;100.00;96908.06;6112045;19;20003;-72
2024/02/08 11:14:08;;;;;;;16.08;8.07;;;;;;;2.49;100.00;96902.25;6109602;19;20082;-72
2024/02/08 11:16:20;;;;;;;17.17;7.95;;;;;;;2.52;100.00;96896.84;6111282;19;20302;-72
2024/02/08 11:18:35;;;;;;;16.00;7.60;;;;;;;2.56;100.00;96890.66;6109446;19;19998;-72
2024/02/08 11:20:44;;;;;;;18.30;8.55;;;;;;;2.59;100.00;96890.72;6111395;19;20021;-72
2024/02/08 11:22:57;;;;;;;19.80;8.75;;;;;;;2.65;100.00;96877.53;6111625;19;20006;-72
2024/02/08 11:25:18;;;;;;;18.70;7.68;;;;;;;2.67;100.00;96877.97;6112272;19;20069;-72
2024/02/08 11:27:27;;;;;;;16.77;7.55;;;;;;;2.71;100.00;96876.88;6109759;19;20372;-72
2024/02/08 11:29:28;;;;;;;17.00;8.30;;;;;;;2.76;100.00;96884.78;6109907;19;20014;-72
2024/02/08 11:31:33;;;;;;;17.35;7.90;;;;;;;2.76;100.00;96871.13;6110310;19;20002;-72
2024/02/08 11:33:40;;;;;;;16.38;7.40;;;;;;;2.78;100.00;96874.25;6107913;19;20003;-72